createdAt,value
2019-02-04T00:04:06.499Z,1025.38
2019-02-04T00:09:06.394Z,1025.38
2019-02-04T00:14:06.849Z,1025.33
2019-02-04T00:18:07.223Z,1025.44
2019-02-04T00:23:08.702Z,1025.47
2019-02-04T00:28:07.474Z,1025.55
2019-02-04T00:33:07.708Z,1025.65
2019-02-04T00:38:07.131Z,1025.68
2019-02-04T00:43:07.824Z,1025.71
2019-02-04T00:48:07.475Z,1025.78
2019-02-04T00:52:06.323Z,1025.86
2019-02-04T00:57:06.844Z,1025.98
2019-02-04T01:02:08.421Z,1026.08
2019-02-04T01:07:07.040Z,1026.17
2019-02-04T01:12:07.997Z,1026.13
2019-02-04T01:17:07.285Z,1026.12
2019-02-04T01:22:07.768Z,1026.2
2019-02-04T01:26:07.161Z,1026.32
2019-02-04T01:31:06.456Z,1026.41
2019-02-04T01:36:06.978Z,1026.48
2019-02-04T01:41:06.813Z,1026.55
2019-02-04T01:46:07.194Z,1026.63
2019-02-04T01:51:06.675Z,1026.74
2019-02-04T01:56:07.182Z,1026.74
2019-02-04T02:00:07.901Z,1026.77
2019-02-04T02:05:09.946Z,1026.82
2019-02-04T02:10:07.033Z,1026.91
2019-02-04T02:15:07.929Z,1026.98
2019-02-04T02:20:06.933Z,1027.01
2019-02-04T02:25:06.302Z,1026.93
2019-02-04T02:34:07.353Z,1027.01
2019-02-04T02:39:07.150Z,1027.14
2019-02-04T02:44:06.669Z,1027.32
2019-02-04T02:49:07.047Z,1027.31
2019-02-04T02:54:06.530Z,1027.37
2019-02-04T02:59:07.028Z,1027.52
2019-02-04T03:04:06.317Z,1027.56
2019-02-04T03:08:05.953Z,1027.68
2019-02-04T03:13:06.575Z,1027.76
2019-02-04T03:18:07.068Z,1027.8
2019-02-04T03:23:06.579Z,1027.79
2019-02-04T03:28:07.050Z,1027.92
2019-02-04T03:33:06.016Z,1027.93
2019-02-04T03:37:07.809Z,1027.99
2019-02-04T03:38:07.301Z,1027.99
2019-02-04T03:42:07.004Z,1027.98
2019-02-04T03:47:07.737Z,1028.04
2019-02-04T03:52:07.256Z,1028.18
2019-02-04T03:57:07.600Z,1028.2
2019-02-04T04:02:06.332Z,1028.36
2019-02-04T04:07:06.340Z,1028.39
2019-02-04T04:12:06.913Z,1028.43
2019-02-04T04:16:07.488Z,1028.48
2019-02-04T04:21:07.914Z,1028.47
2019-02-04T04:26:07.402Z,1028.53
2019-02-04T04:31:07.044Z,1028.62
2019-02-04T04:36:08.034Z,1028.68
2019-02-04T04:41:07.116Z,1028.72
2019-02-04T04:45:08.819Z,1028.73
2019-02-04T04:46:07.753Z,1028.73
2019-02-04T04:50:06.634Z,1028.68
2019-02-04T04:55:06.782Z,1028.68
2019-02-04T05:00:08.657Z,1028.73
2019-02-04T05:05:07.966Z,1028.85
2019-02-04T05:10:07.264Z,1028.9
2019-02-04T05:15:09.767Z,1028.83
2019-02-04T05:20:07.111Z,1028.87
2019-02-04T05:24:06.339Z,1028.93
2019-02-04T05:29:07.032Z,1029.07
2019-02-04T05:34:07.330Z,1029.14
2019-02-04T05:39:09.329Z,1029.15
2019-02-04T05:44:07.449Z,1029.05
2019-02-04T05:49:07.636Z,1029.14
2019-02-04T05:54:07.475Z,1029.04
2019-02-04T05:58:06.349Z,1029.24
2019-02-04T06:03:07.132Z,1029.27
2019-02-04T06:08:07.589Z,1029.32
2019-02-04T06:13:07.431Z,1029.35
2019-02-04T06:18:08.524Z,1029.35
2019-02-04T06:23:07.186Z,1029.43
2019-02-04T06:28:07.722Z,1029.61
2019-02-04T06:32:07.522Z,1029.66
2019-02-04T06:37:06.997Z,1029.58
2019-02-04T06:42:08.056Z,1029.69
2019-02-04T06:47:07.292Z,1029.74
2019-02-04T06:52:07.868Z,1029.76
2019-02-04T06:57:06.467Z,1029.78
2019-02-04T07:02:06.624Z,1029.8
2019-02-04T07:06:07.791Z,1029.87
2019-02-04T07:11:07.670Z,1029.93
2019-02-04T07:16:06.994Z,1030
2019-02-04T07:21:07.455Z,1030.06
2019-02-04T07:26:07.924Z,1030.03
2019-02-04T07:31:07.073Z,1030.13
2019-02-04T07:36:08.016Z,1030.07
2019-02-04T07:40:06.396Z,1030.11
2019-02-04T07:45:08.240Z,1030.16
2019-02-04T07:50:06.944Z,1030.2
2019-02-04T07:55:06.344Z,1030.27
2019-02-04T08:00:09.486Z,1030.29
2019-02-04T08:05:07.924Z,1030.3
2019-02-04T08:10:07.805Z,1030.36
2019-02-04T08:14:06.731Z,1030.34
2019-02-04T08:19:07.027Z,1030.28
2019-02-04T08:24:07.128Z,1030.39
2019-02-04T08:29:07.480Z,1030.4
2019-02-04T08:34:07.905Z,1030.45
2019-02-04T08:39:07.782Z,1030.48
2019-02-04T08:44:07.276Z,1030.38
2019-02-04T15:26:06.485Z,1029.14
2019-02-04T15:31:07.002Z,1029
2019-02-04T15:37:06.902Z,1028.89
2019-02-04T15:43:07.616Z,1028.91
2019-02-04T15:49:06.596Z,1028.87
2019-02-04T15:55:06.011Z,1028.92
2019-02-04T16:01:06.758Z,1028.92
2019-02-04T16:07:07.187Z,1028.95
2019-02-04T16:13:07.990Z,1028.92
2019-02-04T16:18:06.563Z,1028.98
2019-02-04T16:25:06.888Z,1028.97
2019-02-04T16:30:08.817Z,1028.97
2019-02-04T16:36:08.611Z,1028.95
2019-02-04T16:42:07.855Z,1029.02
2019-02-04T16:49:07.251Z,1029.08
2019-02-04T16:55:07.981Z,1029.1
2019-02-04T17:01:07.250Z,1029.11
2019-02-04T17:06:07.858Z,1029.23
2019-02-04T17:12:07.566Z,1029.09
2019-02-04T17:19:08.098Z,1029.08
2019-02-04T17:25:07.586Z,1029.12
2019-02-04T17:32:07.326Z,1029.03
2019-02-04T17:38:07.014Z,1029
2019-02-04T17:46:07.240Z,1029.02
2019-02-04T17:52:07.108Z,1028.96
2019-02-04T18:00:09.844Z,1029.01
2019-02-04T18:06:06.839Z,1028.91
2019-02-04T18:13:07.068Z,1028.84
2019-02-04T18:21:07.570Z,1028.91
2019-02-04T18:28:08.685Z,1028.97
2019-02-04T18:34:08.091Z,1029.11
2019-02-04T18:35:06.424Z,1029.11
2019-02-04T18:41:07.771Z,1029.08
2019-02-04T18:49:07.660Z,1029.16
2019-02-04T18:54:06.962Z,1029.1
2019-02-04T19:10:07.034Z,1029.1
2019-02-04T19:17:07.457Z,1028.92
2019-02-04T19:23:07.721Z,1028.97
2019-02-04T19:29:08.308Z,1028.95
2019-02-04T19:35:06.869Z,1028.86
2019-02-04T19:40:06.666Z,1028.78
2019-02-04T19:48:07.284Z,1028.71
2019-02-04T20:01:06.994Z,1028.7
2019-02-04T20:14:08.072Z,1028.76
2019-02-04T20:22:08.390Z,1028.69
2019-02-04T20:29:07.768Z,1028.68
2019-02-04T20:36:06.783Z,1028.57
2019-02-04T20:43:07.959Z,1028.51
2019-02-04T20:51:07.530Z,1028.46
2019-02-04T20:58:07.644Z,1028.45
2019-02-04T21:12:07.529Z,1028.53
2019-02-04T21:19:07.721Z,1028.51
2019-02-04T21:24:07.167Z,1028.54
2019-02-04T21:32:07.783Z,1028.71
2019-02-04T21:40:06.954Z,1028.43
2019-02-04T21:48:07.614Z,1028.35
2019-02-04T21:53:06.919Z,1028.53
2019-02-04T21:57:06.790Z,1028.56
2019-02-04T22:02:08.428Z,1028.61
2019-02-04T22:07:10.358Z,1028.45
2019-02-04T22:12:07.385Z,1028.37
2019-02-04T22:17:07.301Z,1028.45
2019-02-04T22:22:07.877Z,1028.36
2019-02-04T22:26:06.925Z,1028.34
2019-02-04T22:31:07.012Z,1028.36
2019-02-04T22:36:06.494Z,1028.23
2019-02-04T22:41:06.584Z,1028.27
2019-02-04T22:46:07.049Z,1028.17
2019-02-04T22:51:06.519Z,1028.25
2019-02-04T22:55:08.662Z,1028.26
2019-02-04T23:00:08.580Z,1028.18
2019-02-04T23:05:07.319Z,1028.31
2019-02-04T23:10:08.056Z,1028.33
2019-02-04T23:15:09.807Z,1028.51
2019-02-04T23:20:07.594Z,1028.41
2019-02-04T23:25:06.954Z,1028.46
2019-02-04T23:29:07.541Z,1028.3
2019-02-04T23:34:07.513Z,1028.37
2019-02-04T23:39:08.352Z,1028.48
2019-02-04T23:44:07.857Z,1028.38
2019-02-04T23:49:07.935Z,1028.39
2019-02-04T23:54:07.362Z,1028.47
2019-02-04T23:58:07.604Z,1028.39
